Torm Republican — OYNE2 — position and weather

sailwx.info

Track history (hours):
 
Tides and Currents Weather Stations Pressure Air Temp Water Temp Dewpoint Dewpoint Depression Visibility Wind Speed Wind Dir Waves Ship Positions

Torm Republican

Last reported at 2018-Apr-17 17:55 UTC. Time now 2018-Apr-25 20:02 UTC.
Position N 09°32' W 079°55'.
Warning: this ship's position is 8 days out of date.

Length 183 m; draft 8 m.

Type: Tanker. MMSI: 220560000.

Date/timePositionNaut miles runAvg speedWind from/ knotsBaromVisibWave heightAir tempDewpointWater temp
2018-Apr-17 17:55N 09°32' W 079°55'3 7.8
2018-Apr-17 17:29N 09°29' W 079°56'1 1.7
2018-Apr-17 17:01N 09°28' W 079°56'5 9.1
2018-Apr-17 16:31N 09°24' W 079°55'4 8.9
2018-Apr-17 16:01N 09°19' W 079°55'3 4.7
2018-Apr-17 15:28N 09°17' W 079°55'0 0.4
2018-Apr-17 14:58N 09°16' W 079°55'0 0.7
2018-Apr-17 14:30N 09°16' W 079°55'0 0.2
2018-Apr-17 14:00N 09°16' W 079°55'2 3.8
2018-Apr-17 13:30N 09°14' W 079°55'  
Track history (hours):
 
Tides and Currents Weather Stations Pressure Air Temp Water Temp Dewpoint Dewpoint Depression Visibility Wind Speed Wind Dir Waves Ship Positions

Torm Republican

Last reported at 2018-Apr-17 17:55 UTC. Time now 2018-Apr-25 20:02 UTC.
Position N 09°32' W 079°55'.
Warning: this ship's position is 8 days out of date.

Length 183 m; draft 8 m.

Type: Tanker. MMSI: 220560000.

Date/timePositionNaut miles runAvg speedWind from/ knotsBaromVisibWave heightAir tempDewpointWater temp
2018-Apr-17 17:55N 09°32' W 079°55'3 7.8
2018-Apr-17 17:29N 09°29' W 079°56'1 1.7
2018-Apr-17 17:01N 09°28' W 079°56'5 9.1
2018-Apr-17 16:31N 09°24' W 079°55'4 8.9
2018-Apr-17 16:01N 09°19' W 079°55'3 4.7
2018-Apr-17 15:28N 09°17' W 079°55'0 0.4
2018-Apr-17 14:58N 09°16' W 079°55'0 0.7
2018-Apr-17 14:30N 09°16' W 079°55'0 0.2
2018-Apr-17 14:00N 09°16' W 079°55'2 3.8
2018-Apr-17 13:30N 09°14' W 079°55'  

Dump ship's entire track history